sensor_id;sensor_type;location;lat;lon;timestamp;temperature;humidity
38436;DHT22;24220;48.168;14.024;2023-07-08T00:01:19;24.70;50.40
38436;DHT22;24220;48.168;14.024;2023-07-08T00:03:49;24.70;50.70
38436;DHT22;24220;48.168;14.024;2023-07-08T00:06:25;24.70;50.60
38436;DHT22;24220;48.168;14.024;2023-07-08T00:08:53;24.60;50.70
38436;DHT22;24220;48.168;14.024;2023-07-08T00:11:23;24.60;50.70
38436;DHT22;24220;48.168;14.024;2023-07-08T00:13:53;24.60;50.80
38436;DHT22;24220;48.168;14.024;2023-07-08T00:16:26;24.50;50.80
38436;DHT22;24220;48.168;14.024;2023-07-08T00:18:56;24.50;50.90
38436;DHT22;24220;48.168;14.024;2023-07-08T00:21:26;24.50;50.90
38436;DHT22;24220;48.168;14.024;2023-07-08T00:23:53;24.40;51.00
38436;DHT22;24220;48.168;14.024;2023-07-08T00:26:26;24.40;50.90
38436;DHT22;24220;48.168;14.024;2023-07-08T00:28:56;24.40;50.80
38436;DHT22;24220;48.168;14.024;2023-07-08T00:31:24;24.40;50.50
38436;DHT22;24220;48.168;14.024;2023-07-08T00:33:56;24.40;50.50
38436;DHT22;24220;48.168;14.024;2023-07-08T00:36:26;24.30;51.00
38436;DHT22;24220;48.168;14.024;2023-07-08T00:38:55;24.30;50.70
38436;DHT22;24220;48.168;14.024;2023-07-08T00:43:54;24.20;51.00
38436;DHT22;24220;48.168;14.024;2023-07-08T00:51:39;24.10;51.10
38436;DHT22;24220;48.168;14.024;2023-07-08T00:54:14;24.10;51.10
38436;DHT22;24220;48.168;14.024;2023-07-08T00:59:20;24.00;51.30
38436;DHT22;24220;48.168;14.024;2023-07-08T01:01:49;24.00;51.20
38436;DHT22;24220;48.168;14.024;2023-07-08T01:07:14;24.00;51.80
38436;DHT22;24220;48.168;14.024;2023-07-08T01:09:59;23.90;52.10
38436;DHT22;24220;48.168;14.024;2023-07-08T01:12:33;23.90;51.80
38436;DHT22;24220;48.168;14.024;2023-07-08T01:15:02;23.90;52.40
38436;DHT22;24220;48.168;14.024;2023-07-08T01:17:30;23.90;52.30
38436;DHT22;24220;48.168;14.024;2023-07-08T01:20:02;23.80;52.20
38436;DHT22;24220;48.168;14.024;2023-07-08T01:22:36;23.80;52.50
38436;DHT22;24220;48.168;14.024;2023-07-08T01:25:05;23.70;52.90
38436;DHT22;24220;48.168;14.024;2023-07-08T01:27:36;23.70;52.90
38436;DHT22;24220;48.168;14.024;2023-07-08T01:30:08;23.70;52.90
38436;DHT22;24220;48.168;14.024;2023-07-08T01:32:40;23.70;53.00
38436;DHT22;24220;48.168;14.024;2023-07-08T01:35:11;23.60;52.90
38436;DHT22;24220;48.168;14.024;2023-07-08T01:37:46;23.60;52.90
38436;DHT22;24220;48.168;14.024;2023-07-08T01:42:46;23.50;52.90
38436;DHT22;24220;48.168;14.024;2023-07-08T01:45:18;23.50;52.80
38436;DHT22;24220;48.168;14.024;2023-07-08T01:48:07;23.50;53.10
38436;DHT22;24220;48.168;14.024;2023-07-08T01:50:50;23.50;53.50
38436;DHT22;24220;48.168;14.024;2023-07-08T01:53:29;23.40;53.80
38436;DHT22;24220;48.168;14.024;2023-07-08T01:55:56;23.40;53.50
38436;DHT22;24220;48.168;14.024;2023-07-08T01:58:24;23.40;53.70
38436;DHT22;24220;48.168;14.024;2023-07-08T02:00:52;23.40;53.50
38436;DHT22;24220;48.168;14.024;2023-07-08T02:03:22;23.30;52.90
38436;DHT22;24220;48.168;14.024;2023-07-08T02:05:49;23.30;53.10
38436;DHT22;24220;48.168;14.024;2023-07-08T02:08:17;23.30;53.10
38436;DHT22;24220;48.168;14.024;2023-07-08T02:10:53;23.30;52.90
38436;DHT22;24220;48.168;14.024;2023-07-08T02:13:23;23.20;52.50
38436;DHT22;24220;48.168;14.024;2023-07-08T02:15:51;23.20;52.70
38436;DHT22;24220;48.168;14.024;2023-07-08T02:18:19;23.20;52.60
38436;DHT22;24220;48.168;14.024;2023-07-08T02:20:46;23.20;53.10
38436;DHT22;24220;48.168;14.024;2023-07-08T02:23:16;23.20;52.80
38436;DHT22;24220;48.168;14.024;2023-07-08T02:25:55;23.20;52.70
38436;DHT22;24220;48.168;14.024;2023-07-08T02:28:23;23.20;52.90
38436;DHT22;24220;48.168;14.024;2023-07-08T02:30:53;23.10;52.70
38436;DHT22;24220;48.168;14.024;2023-07-08T02:33:20;23.10;52.90
38436;DHT22;24220;48.168;14.024;2023-07-08T02:36:00;23.10;52.90
38436;DHT22;24220;48.168;14.024;2023-07-08T02:38:30;23.10;53.00
38436;DHT22;24220;48.168;14.024;2023-07-08T02:40:59;23.10;53.40
38436;DHT22;24220;48.168;14.024;2023-07-08T02:43:27;23.10;53.60
38436;DHT22;24220;48.168;14.024;2023-07-08T02:45:54;23.00;53.60
38436;DHT22;24220;48.168;14.024;2023-07-08T02:48:22;23.00;53.40
38436;DHT22;24220;48.168;14.024;2023-07-08T02:50:49;23.00;53.60
38436;DHT22;24220;48.168;14.024;2023-07-08T02:53:19;23.00;54.00
38436;DHT22;24220;48.168;14.024;2023-07-08T02:55:46;23.00;54.00
38436;DHT22;24220;48.168;14.024;2023-07-08T02:58:16;22.90;54.00
38436;DHT22;24220;48.168;14.024;2023-07-08T03:00:43;22.90;54.20
38436;DHT22;24220;48.168;14.024;2023-07-08T03:03:10;22.90;54.10
38436;DHT22;24220;48.168;14.024;2023-07-08T03:05:40;22.80;54.50
38436;DHT22;24220;48.168;14.024;2023-07-08T03:08:07;22.80;54.80
38436;DHT22;24220;48.168;14.024;2023-07-08T03:10:37;22.80;54.60
38436;DHT22;24220;48.168;14.024;2023-07-08T03:13:05;22.80;54.80
38436;DHT22;24220;48.168;14.024;2023-07-08T03:15:32;22.70;54.70
38436;DHT22;24220;48.168;14.024;2023-07-08T03:17:59;22.70;54.90
38436;DHT22;24220;48.168;14.024;2023-07-08T03:20:28;22.60;54.70
38436;DHT22;24220;48.168;14.024;2023-07-08T03:22:59;22.60;54.90
38436;DHT22;24220;48.168;14.024;2023-07-08T03:25:26;22.70;54.30
38436;DHT22;24220;48.168;14.024;2023-07-08T03:27:54;22.60;54.80
38436;DHT22;24220;48.168;14.024;2023-07-08T03:30:22;22.60;55.00
38436;DHT22;24220;48.168;14.024;2023-07-08T03:32:54;22.50;54.80
38436;DHT22;24220;48.168;14.024;2023-07-08T03:35:24;22.50;55.10
38436;DHT22;24220;48.168;14.024;2023-07-08T03:37:52;22.50;55.60
38436;DHT22;24220;48.168;14.024;2023-07-08T03:40:20;22.50;55.60
38436;DHT22;24220;48.168;14.024;2023-07-08T03:42:47;22.50;55.30
38436;DHT22;24220;48.168;14.024;2023-07-08T03:45:19;22.40;55.10
38436;DHT22;24220;48.168;14.024;2023-07-08T03:47:47;22.40;55.00
38436;DHT22;24220;48.168;14.024;2023-07-08T03:50:23;22.40;55.20
38436;DHT22;24220;48.168;14.024;2023-07-08T03:52:52;22.40;55.60
38436;DHT22;24220;48.168;14.024;2023-07-08T03:55:21;22.40;55.80
38436;DHT22;24220;48.168;14.024;2023-07-08T03:57:48;22.30;55.90
38436;DHT22;24220;48.168;14.024;2023-07-08T04:00:16;22.30;56.00
38436;DHT22;24220;48.168;14.024;2023-07-08T04:02:44;22.30;55.70
38436;DHT22;24220;48.168;14.024;2023-07-08T04:05:17;22.30;55.80
38436;DHT22;24220;48.168;14.024;2023-07-08T04:07:45;22.30;56.40
38436;DHT22;24220;48.168;14.024;2023-07-08T04:10:15;22.30;56.30
38436;DHT22;24220;48.168;14.024;2023-07-08T04:12:46;22.30;56.10
38436;DHT22;24220;48.168;14.024;2023-07-08T04:15:16;22.20;56.10
38436;DHT22;24220;48.168;14.024;2023-07-08T04:17:51;22.20;56.00
38436;DHT22;24220;48.168;14.024;2023-07-08T04:20:19;22.20;56.60
38436;DHT22;24220;48.168;14.024;2023-07-08T04:22:48;22.20;56.50
38436;DHT22;24220;48.168;14.024;2023-07-08T04:25:18;22.20;56.40
38436;DHT22;24220;48.168;14.024;2023-07-08T04:27:46;22.20;56.50
38436;DHT22;24220;48.168;14.024;2023-07-08T04:30:24;22.20;56.30
38436;DHT22;24220;48.168;14.024;2023-07-08T04:32:52;22.20;56.30
38436;DHT22;24220;48.168;14.024;2023-07-08T04:35:19;22.20;56.20
38436;DHT22;24220;48.168;14.024;2023-07-08T04:37:47;22.20;56.20
38436;DHT22;24220;48.168;14.024;2023-07-08T04:40:20;22.20;56.80
38436;DHT22;24220;48.168;14.024;2023-07-08T04:42:49;22.20;56.60
38436;DHT22;24220;48.168;14.024;2023-07-08T04:45:17;22.20;56.40
38436;DHT22;24220;48.168;14.024;2023-07-08T04:47:45;22.20;56.70
38436;DHT22;24220;48.168;14.024;2023-07-08T04:50:20;22.20;56.50
38436;DHT22;24220;48.168;14.024;2023-07-08T04:52:48;22.20;55.90
38436;DHT22;24220;48.168;14.024;2023-07-08T04:55:18;22.20;55.80
38436;DHT22;24220;48.168;14.024;2023-07-08T04:57:47;22.30;56.00
38436;DHT22;24220;48.168;14.024;2023-07-08T05:00:16;22.30;56.10
38436;DHT22;24220;48.168;14.024;2023-07-08T05:02:44;22.30;55.50
38436;DHT22;24220;48.168;14.024;2023-07-08T05:05:13;22.30;55.60
38436;DHT22;24220;48.168;14.024;2023-07-08T05:07:40;22.30;55.70
38436;DHT22;24220;48.168;14.024;2023-07-08T05:10:08;22.30;57.40
38436;DHT22;24220;48.168;14.024;2023-07-08T05:12:35;22.40;57.60
38436;DHT22;24220;48.168;14.024;2023-07-08T05:15:06;22.40;57.00
38436;DHT22;24220;48.168;14.024;2023-07-08T05:17:37;22.40;58.00
38436;DHT22;24220;48.168;14.024;2023-07-08T05:20:10;22.40;56.30
38436;DHT22;24220;48.168;14.024;2023-07-08T05:22:40;22.40;55.20
38436;DHT22;24220;48.168;14.024;2023-07-08T05:25:08;22.40;55.30
38436;DHT22;24220;48.168;14.024;2023-07-08T05:27:36;22.40;55.10
38436;DHT22;24220;48.168;14.024;2023-07-08T05:30:13;22.50;56.20
38436;DHT22;24220;48.168;14.024;2023-07-08T05:32:41;22.50;55.50
38436;DHT22;24220;48.168;14.024;2023-07-08T05:35:09;22.50;56.00
38436;DHT22;24220;48.168;14.024;2023-07-08T05:37:39;22.50;55.60
38436;DHT22;24220;48.168;14.024;2023-07-08T05:40:08;22.50;55.50
38436;DHT22;24220;48.168;14.024;2023-07-08T05:42:38;22.50;56.00
38436;DHT22;24220;48.168;14.024;2023-07-08T05:45:08;22.50;55.30
38436;DHT22;24220;48.168;14.024;2023-07-08T05:47:37;22.50;55.30
38436;DHT22;24220;48.168;14.024;2023-07-08T05:50:07;22.50;55.60
38436;DHT22;24220;48.168;14.024;2023-07-08T05:52:37;22.50;55.40
38436;DHT22;24220;48.168;14.024;2023-07-08T05:55:07;22.50;55.20
38436;DHT22;24220;48.168;14.024;2023-07-08T05:57:34;22.50;55.30
38436;DHT22;24220;48.168;14.024;2023-07-08T06:00:03;22.50;55.30
38436;DHT22;24220;48.168;14.024;2023-07-08T06:02:33;22.50;55.20
38436;DHT22;24220;48.168;14.024;2023-07-08T06:05:03;22.60;55.30
38436;DHT22;24220;48.168;14.024;2023-07-08T06:07:32;22.50;55.60
38436;DHT22;24220;48.168;14.024;2023-07-08T06:10:00;22.60;55.10
38436;DHT22;24220;48.168;14.024;2023-07-08T06:12:27;22.60;54.80
38436;DHT22;24220;48.168;14.024;2023-07-08T06:14:55;22.60;55.20
38436;DHT22;24220;48.168;14.024;2023-07-08T06:17:22;22.60;55.20
38436;DHT22;24220;48.168;14.024;2023-07-08T06:19:52;22.60;55.30
38436;DHT22;24220;48.168;14.024;2023-07-08T06:22:19;22.60;54.90
38436;DHT22;24220;48.168;14.024;2023-07-08T06:24:55;22.60;55.30
38436;DHT22;24220;48.168;14.024;2023-07-08T06:27:23;22.70;55.10
38436;DHT22;24220;48.168;14.024;2023-07-08T06:29:53;22.80;55.30
38436;DHT22;24220;48.168;14.024;2023-07-08T06:32:20;22.80;56.10
38436;DHT22;24220;48.168;14.024;2023-07-08T06:34:48;22.90;55.90
38436;DHT22;24220;48.168;14.024;2023-07-08T06:37:15;22.90;55.70
38436;DHT22;24220;48.168;14.024;2023-07-08T06:39:42;23.00;55.50
38436;DHT22;24220;48.168;14.024;2023-07-08T06:42:10;23.00;55.50
38436;DHT22;24220;48.168;14.024;2023-07-08T06:44:40;23.00;55.50
38436;DHT22;24220;48.168;14.024;2023-07-08T06:47:08;23.10;56.40
38436;DHT22;24220;48.168;14.024;2023-07-08T06:49:41;23.20;57.00
38436;DHT22;24220;48.168;14.024;2023-07-08T06:52:08;23.20;57.90
38436;DHT22;24220;48.168;14.024;2023-07-08T06:54:38;23.30;58.50
38436;DHT22;24220;48.168;14.024;2023-07-08T06:57:06;23.40;58.20
38436;DHT22;24220;48.168;14.024;2023-07-08T06:59:34;23.40;59.10
38436;DHT22;24220;48.168;14.024;2023-07-08T07:02:01;23.40;57.50
38436;DHT22;24220;48.168;14.024;2023-07-08T07:04:29;23.40;59.00
38436;DHT22;24220;48.168;14.024;2023-07-08T07:06:59;23.50;59.40
38436;DHT22;24220;48.168;14.024;2023-07-08T07:09:30;23.50;60.20
38436;DHT22;24220;48.168;14.024;2023-07-08T07:11:57;23.60;58.20
38436;DHT22;24220;48.168;14.024;2023-07-08T07:14:24;23.60;58.10
38436;DHT22;24220;48.168;14.024;2023-07-08T07:16:55;23.60;57.90
38436;DHT22;24220;48.168;14.024;2023-07-08T07:19:35;23.70;58.40
38436;DHT22;24220;48.168;14.024;2023-07-08T07:22:02;23.70;57.50
38436;DHT22;24220;48.168;14.024;2023-07-08T07:24:30;23.80;58.60
38436;DHT22;24220;48.168;14.024;2023-07-08T07:26:57;23.80;58.90
38436;DHT22;24220;48.168;14.024;2023-07-08T07:29:25;23.90;60.40
38436;DHT22;24220;48.168;14.024;2023-07-08T07:31:54;24.00;58.70
38436;DHT22;24220;48.168;14.024;2023-07-08T07:34:22;24.00;58.30
38436;DHT22;24220;48.168;14.024;2023-07-08T07:36:49;24.00;59.00
38436;DHT22;24220;48.168;14.024;2023-07-08T07:39:17;24.10;58.40
38436;DHT22;24220;48.168;14.024;2023-07-08T07:41:46;24.20;58.30
38436;DHT22;24220;48.168;14.024;2023-07-08T07:44:13;24.30;57.60
38436;DHT22;24220;48.168;14.024;2023-07-08T07:46:41;24.40;56.90
38436;DHT22;24220;48.168;14.024;2023-07-08T07:49:10;24.40;56.90
38436;DHT22;24220;48.168;14.024;2023-07-08T07:51:40;24.60;56.30
38436;DHT22;24220;48.168;14.024;2023-07-08T07:54:07;24.70;56.20
38436;DHT22;24220;48.168;14.024;2023-07-08T07:56:37;24.80;56.00
38436;DHT22;24220;48.168;14.024;2023-07-08T07:59:07;24.90;56.20
38436;DHT22;24220;48.168;14.024;2023-07-08T08:01:34;25.00;55.30
38436;DHT22;24220;48.168;14.024;2023-07-08T08:04:04;25.10;56.00
38436;DHT22;24220;48.168;14.024;2023-07-08T08:06:32;25.20;56.30
38436;DHT22;24220;48.168;14.024;2023-07-08T08:08:59;25.20;56.20
38436;DHT22;24220;48.168;14.024;2023-07-08T08:11:26;25.40;56.00
38436;DHT22;24220;48.168;14.024;2023-07-08T08:13:54;25.40;56.50
38436;DHT22;24220;48.168;14.024;2023-07-08T08:16:23;25.50;56.70
38436;DHT22;24220;48.168;14.024;2023-07-08T08:18:53;25.60;56.10
38436;DHT22;24220;48.168;14.024;2023-07-08T08:21:20;25.60;54.40
38436;DHT22;24220;48.168;14.024;2023-07-08T08:23:48;25.70;53.70
38436;DHT22;24220;48.168;14.024;2023-07-08T08:26:20;25.70;53.50
38436;DHT22;24220;48.168;14.024;2023-07-08T08:28:48;25.80;53.60
38436;DHT22;24220;48.168;14.024;2023-07-08T08:31:15;25.80;53.30
38436;DHT22;24220;48.168;14.024;2023-07-08T08:33:46;25.90;53.60
38436;DHT22;24220;48.168;14.024;2023-07-08T08:36:13;25.90;54.10
38436;DHT22;24220;48.168;14.024;2023-07-08T08:38:42;26.00;54.30
38436;DHT22;24220;48.168;14.024;2023-07-08T08:41:14;26.10;52.60
38436;DHT22;24220;48.168;14.024;2023-07-08T08:43:43;26.10;53.30
38436;DHT22;24220;48.168;14.024;2023-07-08T08:46:51;26.10;54.40
38436;DHT22;24220;48.168;14.024;2023-07-08T08:49:40;26.30;54.80
38436;DHT22;24220;48.168;14.024;2023-07-08T08:52:08;26.30;54.00
38436;DHT22;24220;48.168;14.024;2023-07-08T08:54:36;26.30;53.10
38436;DHT22;24220;48.168;14.024;2023-07-08T09:00:07;26.50;52.00
38436;DHT22;24220;48.168;14.024;2023-07-08T09:02:41;26.60;52.50
38436;DHT22;24220;48.168;14.024;2023-07-08T09:05:14;26.60;53.00
38436;DHT22;24220;48.168;14.024;2023-07-08T09:10:42;26.80;54.60
38436;DHT22;24220;48.168;14.024;2023-07-08T09:13:25;26.80;51.90
38436;DHT22;24220;48.168;14.024;2023-07-08T09:16:05;26.90;52.70
38436;DHT22;24220;48.168;14.024;2023-07-08T09:18:38;27.00;51.90
38436;DHT22;24220;48.168;14.024;2023-07-08T09:21:18;27.00;50.30
38436;DHT22;24220;48.168;14.024;2023-07-08T09:23:48;27.10;52.00
38436;DHT22;24220;48.168;14.024;2023-07-08T09:26:21;27.20;51.90
38436;DHT22;24220;48.168;14.024;2023-07-08T09:28:49;27.20;50.70
38436;DHT22;24220;48.168;14.024;2023-07-08T09:31:27;27.20;50.90
38436;DHT22;24220;48.168;14.024;2023-07-08T09:34:10;27.30;50.80
38436;DHT22;24220;48.168;14.024;2023-07-08T09:36:41;27.40;50.70
38436;DHT22;24220;48.168;14.024;2023-07-08T09:39:14;27.40;51.80
38436;DHT22;24220;48.168;14.024;2023-07-08T09:41:43;27.50;50.40
38436;DHT22;24220;48.168;14.024;2023-07-08T09:44:24;27.50;50.10
38436;DHT22;24220;48.168;14.024;2023-07-08T09:46:58;27.60;49.60
38436;DHT22;24220;48.168;14.024;2023-07-08T09:49:34;27.60;50.30
38436;DHT22;24220;48.168;14.024;2023-07-08T09:52:03;27.70;51.40
38436;DHT22;24220;48.168;14.024;2023-07-08T09:54:31;27.70;51.20
38436;DHT22;24220;48.168;14.024;2023-07-08T09:57:28;27.70;50.80
38436;DHT22;24220;48.168;14.024;2023-07-08T10:00:02;27.80;51.50
38436;DHT22;24220;48.168;14.024;2023-07-08T10:02:43;27.90;50.90
38436;DHT22;24220;48.168;14.024;2023-07-08T10:07:46;28.10;50.00
38436;DHT22;24220;48.168;14.024;2023-07-08T10:10:19;28.20;48.10
38436;DHT22;24220;48.168;14.024;2023-07-08T10:13:01;28.20;48.20
38436;DHT22;24220;48.168;14.024;2023-07-08T10:15:51;28.30;49.20
38436;DHT22;24220;48.168;14.024;2023-07-08T10:18:27;28.40;48.90
38436;DHT22;24220;48.168;14.024;2023-07-08T10:31:38;28.60;47.40
38436;DHT22;24220;48.168;14.024;2023-07-08T10:34:12;28.70;46.50
38436;DHT22;24220;48.168;14.024;2023-07-08T10:39:43;28.80;47.00
38436;DHT22;24220;48.168;14.024;2023-07-08T10:56:38;29.00;46.70
38436;DHT22;24220;48.168;14.024;2023-07-08T11:09:49;29.20;46.30
38436;DHT22;24220;48.168;14.024;2023-07-08T11:15:12;29.30;45.10
38436;DHT22;24220;48.168;14.024;2023-07-08T11:17:54;29.30;45.30
38436;DHT22;24220;48.168;14.024;2023-07-08T11:20:36;29.40;46.60
38436;DHT22;24220;48.168;14.024;2023-07-08T11:23:48;29.40;45.00
38436;DHT22;24220;48.168;14.024;2023-07-08T11:29:22;29.50;45.20
38436;DHT22;24220;48.168;14.024;2023-07-08T11:31:51;29.50;46.80
38436;DHT22;24220;48.168;14.024;2023-07-08T11:34:20;29.50;45.80
38436;DHT22;24220;48.168;14.024;2023-07-08T11:36:51;29.60;45.50
38436;DHT22;24220;48.168;14.024;2023-07-08T11:39:28;29.60;45.60
38436;DHT22;24220;48.168;14.024;2023-07-08T11:42:30;29.60;45.50
38436;DHT22;24220;48.168;14.024;2023-07-08T11:44:55;29.70;45.70
38436;DHT22;24220;48.168;14.024;2023-07-08T11:47:40;29.70;43.70
38436;DHT22;24220;48.168;14.024;2023-07-08T11:50:21;29.80;43.10
38436;DHT22;24220;48.168;14.024;2023-07-08T11:58:28;29.90;43.50
38436;DHT22;24220;48.168;14.024;2023-07-08T12:09:26;30.10;43.70
38436;DHT22;24220;48.168;14.024;2023-07-08T12:11:58;30.10;44.20
38436;DHT22;24220;48.168;14.024;2023-07-08T12:14:29;30.20;45.80
38436;DHT22;24220;48.168;14.024;2023-07-08T12:16:58;30.20;45.30
38436;DHT22;24220;48.168;14.024;2023-07-08T12:19:28;30.20;44.90
38436;DHT22;24220;48.168;14.024;2023-07-08T12:22:01;30.30;44.50
38436;DHT22;24220;48.168;14.024;2023-07-08T12:24:29;30.30;43.80
38436;DHT22;24220;48.168;14.024;2023-07-08T12:26:56;30.40;43.80
38436;DHT22;24220;48.168;14.024;2023-07-08T12:29:27;30.50;44.00
38436;DHT22;24220;48.168;14.024;2023-07-08T12:31:55;30.50;42.60
38436;DHT22;24220;48.168;14.024;2023-07-08T12:34:25;30.60;44.20
38436;DHT22;24220;48.168;14.024;2023-07-08T12:36:53;30.60;43.30
38436;DHT22;24220;48.168;14.024;2023-07-08T12:39:21;30.70;43.20
38436;DHT22;24220;48.168;14.024;2023-07-08T12:41:49;30.70;43.00
38436;DHT22;24220;48.168;14.024;2023-07-08T12:44:21;30.80;42.70
38436;DHT22;24220;48.168;14.024;2023-07-08T12:46:51;30.80;41.80
38436;DHT22;24220;48.168;14.024;2023-07-08T12:49:20;30.90;41.80
38436;DHT22;24220;48.168;14.024;2023-07-08T12:51:50;30.90;41.50
38436;DHT22;24220;48.168;14.024;2023-07-08T12:54:20;30.90;41.40
38436;DHT22;24220;48.168;14.024;2023-07-08T12:56:49;30.90;41.90
38436;DHT22;24220;48.168;14.024;2023-07-08T12:59:19;31.00;43.20
38436;DHT22;24220;48.168;14.024;2023-07-08T13:01:49;31.00;42.70
38436;DHT22;24220;48.168;14.024;2023-07-08T13:04:18;31.10;42.40
38436;DHT22;24220;48.168;14.024;2023-07-08T13:06:47;31.10;42.60
38436;DHT22;24220;48.168;14.024;2023-07-08T13:11:51;31.20;41.20
38436;DHT22;24220;48.168;14.024;2023-07-08T13:14:24;31.10;40.90
38436;DHT22;24220;48.168;14.024;2023-07-08T13:16:52;31.20;41.00
38436;DHT22;24220;48.168;14.024;2023-07-08T13:19:20;31.20;41.20
38436;DHT22;24220;48.168;14.024;2023-07-08T13:21:50;31.30;41.40
38436;DHT22;24220;48.168;14.024;2023-07-08T13:24:18;31.40;40.40
38436;DHT22;24220;48.168;14.024;2023-07-08T13:26:48;31.40;40.80
38436;DHT22;24220;48.168;14.024;2023-07-08T13:29:17;31.50;41.10
38436;DHT22;24220;48.168;14.024;2023-07-08T13:31:53;31.50;42.60
38436;DHT22;24220;48.168;14.024;2023-07-08T13:34:24;31.70;41.40
38436;DHT22;24220;48.168;14.024;2023-07-08T13:36:52;31.80;42.10
38436;DHT22;24220;48.168;14.024;2023-07-08T13:39:28;31.80;43.10
38436;DHT22;24220;48.168;14.024;2023-07-08T13:41:57;32.00;42.10
38436;DHT22;24220;48.168;14.024;2023-07-08T13:44:26;32.10;42.30
38436;DHT22;24220;48.168;14.024;2023-07-08T13:46:59;32.10;41.80
38436;DHT22;24220;48.168;14.024;2023-07-08T13:49:30;32.30;41.00
38436;DHT22;24220;48.168;14.024;2023-07-08T13:52:07;32.30;40.80
38436;DHT22;24220;48.168;14.024;2023-07-08T13:54:51;32.40;42.10
38436;DHT22;24220;48.168;14.024;2023-07-08T13:57:27;32.50;40.60
38436;DHT22;24220;48.168;14.024;2023-07-08T13:59:57;32.60;39.20
38436;DHT22;24220;48.168;14.024;2023-07-08T14:02:31;32.60;39.00
38436;DHT22;24220;48.168;14.024;2023-07-08T14:04:59;32.50;39.60
38436;DHT22;24220;48.168;14.024;2023-07-08T14:07:30;32.50;39.00
38436;DHT22;24220;48.168;14.024;2023-07-08T14:09:58;32.50;39.60
38436;DHT22;24220;48.168;14.024;2023-07-08T14:12:25;32.40;41.50
38436;DHT22;24220;48.168;14.024;2023-07-08T14:14:52;32.40;40.80
38436;DHT22;24220;48.168;14.024;2023-07-08T14:17:25;32.30;41.10
38436;DHT22;24220;48.168;14.024;2023-07-08T14:19:53;32.30;40.00
38436;DHT22;24220;48.168;14.024;2023-07-08T14:22:26;32.30;39.90
38436;DHT22;24220;48.168;14.024;2023-07-08T14:24:55;32.10;39.30
38436;DHT22;24220;48.168;14.024;2023-07-08T14:27:25;32.20;40.30
38436;DHT22;24220;48.168;14.024;2023-07-08T14:29:52;32.10;40.40
38436;DHT22;24220;48.168;14.024;2023-07-08T14:32:29;32.10;40.00
38436;DHT22;24220;48.168;14.024;2023-07-08T14:35:17;32.00;40.60
38436;DHT22;24220;48.168;14.024;2023-07-08T14:37:48;32.00;41.00
38436;DHT22;24220;48.168;14.024;2023-07-08T14:40:35;32.00;40.50
38436;DHT22;24220;48.168;14.024;2023-07-08T14:43:22;31.90;40.70
38436;DHT22;24220;48.168;14.024;2023-07-08T14:45:53;31.90;40.30
38436;DHT22;24220;48.168;14.024;2023-07-08T14:48:22;31.90;40.00
38436;DHT22;24220;48.168;14.024;2023-07-08T14:50:53;31.90;40.10
38436;DHT22;24220;48.168;14.024;2023-07-08T14:53:20;31.80;39.40
38436;DHT22;24220;48.168;14.024;2023-07-08T14:55:51;31.80;40.00
38436;DHT22;24220;48.168;14.024;2023-07-08T14:58:28;31.80;39.90
38436;DHT22;24220;48.168;14.024;2023-07-08T15:01:01;31.80;39.80
38436;DHT22;24220;48.168;14.024;2023-07-08T15:03:32;31.70;39.90
38436;DHT22;24220;48.168;14.024;2023-07-08T15:06:00;31.70;39.90
38436;DHT22;24220;48.168;14.024;2023-07-08T15:08:28;31.70;39.20
38436;DHT22;24220;48.168;14.024;2023-07-08T15:10:58;31.70;39.20
38436;DHT22;24220;48.168;14.024;2023-07-08T15:13:27;31.70;40.30
38436;DHT22;24220;48.168;14.024;2023-07-08T15:15:56;31.70;39.90
38436;DHT22;24220;48.168;14.024;2023-07-08T15:18:24;31.70;40.20
38436;DHT22;24220;48.168;14.024;2023-07-08T15:20:52;31.70;40.50
38436;DHT22;24220;48.168;14.024;2023-07-08T15:23:19;31.60;39.70
38436;DHT22;24220;48.168;14.024;2023-07-08T15:25:47;31.60;39.50
38436;DHT22;24220;48.168;14.024;2023-07-08T15:28:54;31.60;39.70
38436;DHT22;24220;48.168;14.024;2023-07-08T15:31:28;31.60;40.00
38436;DHT22;24220;48.168;14.024;2023-07-08T15:33:58;31.60;40.50
38436;DHT22;24220;48.168;14.024;2023-07-08T15:36:32;31.60;39.40
38436;DHT22;24220;48.168;14.024;2023-07-08T15:39:01;31.60;39.40
38436;DHT22;24220;48.168;14.024;2023-07-08T15:41:30;31.60;39.80
38436;DHT22;24220;48.168;14.024;2023-07-08T15:44:01;31.60;40.10
38436;DHT22;24220;48.168;14.024;2023-07-08T15:46:46;31.60;39.80
38436;DHT22;24220;48.168;14.024;2023-07-08T15:49:21;31.60;39.70
38436;DHT22;24220;48.168;14.024;2023-07-08T15:51:50;31.50;39.80
38436;DHT22;24220;48.168;14.024;2023-07-08T15:54:18;31.50;40.50
38436;DHT22;24220;48.168;14.024;2023-07-08T15:56:50;31.50;40.30
38436;DHT22;24220;48.168;14.024;2023-07-08T15:59:27;31.50;39.90
38436;DHT22;24220;48.168;14.024;2023-07-08T16:01:57;31.50;40.20
38436;DHT22;24220;48.168;14.024;2023-07-08T16:04:32;31.50;40.10
38436;DHT22;24220;48.168;14.024;2023-07-08T16:07:02;31.40;40.70
38436;DHT22;24220;48.168;14.024;2023-07-08T16:09:32;31.40;40.70
38436;DHT22;24220;48.168;14.024;2023-07-08T16:12:00;31.40;40.30
38436;DHT22;24220;48.168;14.024;2023-07-08T16:14:27;31.40;40.50
38436;DHT22;24220;48.168;14.024;2023-07-08T16:16:55;31.40;40.80
38436;DHT22;24220;48.168;14.024;2023-07-08T16:19:25;31.40;40.20
38436;DHT22;24220;48.168;14.024;2023-07-08T16:21:57;31.40;40.50
38436;DHT22;24220;48.168;14.024;2023-07-08T16:24:24;31.40;40.30
38436;DHT22;24220;48.168;14.024;2023-07-08T16:26:51;31.40;39.60
38436;DHT22;24220;48.168;14.024;2023-07-08T16:29:19;31.30;39.50
38436;DHT22;24220;48.168;14.024;2023-07-08T16:31:47;31.30;39.50
38436;DHT22;24220;48.168;14.024;2023-07-08T16:34:15;31.30;40.40
38436;DHT22;24220;48.168;14.024;2023-07-08T16:36:42;31.30;40.30
38436;DHT22;24220;48.168;14.024;2023-07-08T16:39:10;31.30;41.20
38436;DHT22;24220;48.168;14.024;2023-07-08T16:41:37;31.20;40.40
38436;DHT22;24220;48.168;14.024;2023-07-08T16:44:20;31.20;40.60
38436;DHT22;24220;48.168;14.024;2023-07-08T16:46:49;31.20;40.00
38436;DHT22;24220;48.168;14.024;2023-07-08T16:49:17;31.20;40.80
38436;DHT22;24220;48.168;14.024;2023-07-08T16:51:44;31.20;40.30
38436;DHT22;24220;48.168;14.024;2023-07-08T16:54:14;31.20;40.60
38436;DHT22;24220;48.168;14.024;2023-07-08T16:56:44;31.10;40.70
38436;DHT22;24220;48.168;14.024;2023-07-08T16:59:13;31.20;40.80
38436;DHT22;24220;48.168;14.024;2023-07-08T17:01:44;31.10;40.50
38436;DHT22;24220;48.168;14.024;2023-07-08T17:04:13;31.10;40.60